sensor_id;sensor_type;location;lat;lon;timestamp;temperature;humidity
55211;DHT22;41082;52.822;6.666;2023-08-07T00:01:35;15.60;99.90
55211;DHT22;41082;52.822;6.666;2023-08-07T00:04:00;15.70;99.90
55211;DHT22;41082;52.822;6.666;2023-08-07T00:06:26;15.70;99.90
55211;DHT22;41082;52.822;6.666;2023-08-07T00:08:51;15.70;99.90
55211;DHT22;41082;52.822;6.666;2023-08-07T00:11:17;15.70;99.90
55211;DHT22;41082;52.822;6.666;2023-08-07T00:13:43;15.70;99.90
55211;DHT22;41082;52.822;6.666;2023-08-07T00:16:09;15.70;99.90
55211;DHT22;41082;52.822;6.666;2023-08-07T00:18:35;15.60;99.90
55211;DHT22;41082;52.822;6.666;2023-08-07T00:21:01;15.60;99.90
55211;DHT22;41082;52.822;6.666;2023-08-07T00:23:27;15.70;99.90
55211;DHT22;41082;52.822;6.666;2023-08-07T00:25:53;15.60;99.90
55211;DHT22;41082;52.822;6.666;2023-08-07T00:28:18;15.60;99.90
55211;DHT22;41082;52.822;6.666;2023-08-07T00:30:44;15.60;99.90
55211;DHT22;41082;52.822;6.666;2023-08-07T00:33:09;15.60;99.90
55211;DHT22;41082;52.822;6.666;2023-08-07T00:35:35;15.60;99.90
55211;DHT22;41082;52.822;6.666;2023-08-07T00:38:01;15.60;99.90
55211;DHT22;41082;52.822;6.666;2023-08-07T00:40:26;15.60;99.90
55211;DHT22;41082;52.822;6.666;2023-08-07T00:42:52;15.60;99.90
55211;DHT22;41082;52.822;6.666;2023-08-07T00:45:17;15.60;99.90
55211;DHT22;41082;52.822;6.666;2023-08-07T00:47:43;15.60;99.90
55211;DHT22;41082;52.822;6.666;2023-08-07T00:50:10;15.60;99.90
55211;DHT22;41082;52.822;6.666;2023-08-07T00:52:35;15.60;99.90
55211;DHT22;41082;52.822;6.666;2023-08-07T00:55:01;15.60;99.90
55211;DHT22;41082;52.822;6.666;2023-08-07T00:57:28;15.60;99.90
55211;DHT22;41082;52.822;6.666;2023-08-07T00:59:54;15.60;99.90
55211;DHT22;41082;52.822;6.666;2023-08-07T01:02:19;15.50;99.90
55211;DHT22;41082;52.822;6.666;2023-08-07T01:04:45;15.50;99.90
55211;DHT22;41082;52.822;6.666;2023-08-07T01:07:11;15.50;99.90
55211;DHT22;41082;52.822;6.666;2023-08-07T01:09:37;15.50;99.90
55211;DHT22;41082;52.822;6.666;2023-08-07T01:14:55;15.40;99.90
55211;DHT22;41082;52.822;6.666;2023-08-07T01:17:22;15.40;99.90
55211;DHT22;41082;52.822;6.666;2023-08-07T01:19:50;15.40;99.90
55211;DHT22;41082;52.822;6.666;2023-08-07T01:22:18;15.40;99.90
55211;DHT22;41082;52.822;6.666;2023-08-07T01:24:49;15.40;99.90
55211;DHT22;41082;52.822;6.666;2023-08-07T01:32:53;15.30;99.90
55211;DHT22;41082;52.822;6.666;2023-08-07T01:35:22;15.30;99.90
55211;DHT22;41082;52.822;6.666;2023-08-07T01:37:54;15.30;99.90
55211;DHT22;41082;52.822;6.666;2023-08-07T01:40:21;15.30;99.90
55211;DHT22;41082;52.822;6.666;2023-08-07T01:42:47;15.30;99.90
55211;DHT22;41082;52.822;6.666;2023-08-07T01:45:13;15.20;99.90
55211;DHT22;41082;52.822;6.666;2023-08-07T01:47:39;15.30;99.90
55211;DHT22;41082;52.822;6.666;2023-08-07T01:50:05;15.20;99.90
55211;DHT22;41082;52.822;6.666;2023-08-07T01:52:31;15.20;99.90
55211;DHT22;41082;52.822;6.666;2023-08-07T01:54:56;15.20;99.90
55211;DHT22;41082;52.822;6.666;2023-08-07T01:57:22;15.20;99.90
55211;DHT22;41082;52.822;6.666;2023-08-07T01:59:48;15.20;99.90
55211;DHT22;41082;52.822;6.666;2023-08-07T02:02:13;15.20;99.90
55211;DHT22;41082;52.822;6.666;2023-08-07T02:04:39;15.20;99.90
55211;DHT22;41082;52.822;6.666;2023-08-07T02:07:04;15.20;99.90
55211;DHT22;41082;52.822;6.666;2023-08-07T02:09:30;15.20;99.90
55211;DHT22;41082;52.822;6.666;2023-08-07T02:11:55;15.10;99.90
55211;DHT22;41082;52.822;6.666;2023-08-07T02:14:21;15.10;99.90
55211;DHT22;41082;52.822;6.666;2023-08-07T02:16:46;15.10;99.90
55211;DHT22;41082;52.822;6.666;2023-08-07T02:19:12;15.10;99.90
55211;DHT22;41082;52.822;6.666;2023-08-07T02:21:37;15.00;99.90
55211;DHT22;41082;52.822;6.666;2023-08-07T02:24:03;15.00;99.90
55211;DHT22;41082;52.822;6.666;2023-08-07T02:26:29;15.00;99.90
55211;DHT22;41082;52.822;6.666;2023-08-07T02:28:54;15.00;99.90
55211;DHT22;41082;52.822;6.666;2023-08-07T02:31:20;15.00;99.90
55211;DHT22;41082;52.822;6.666;2023-08-07T02:33:46;14.90;99.90
55211;DHT22;41082;52.822;6.666;2023-08-07T02:36:11;14.90;99.90
55211;DHT22;41082;52.822;6.666;2023-08-07T02:38:37;14.90;99.90
55211;DHT22;41082;52.822;6.666;2023-08-07T02:41:03;14.90;99.90
55211;DHT22;41082;52.822;6.666;2023-08-07T02:43:29;14.80;99.90
55211;DHT22;41082;52.822;6.666;2023-08-07T02:45:54;14.80;99.90
55211;DHT22;41082;52.822;6.666;2023-08-07T02:48:20;14.80;99.90
55211;DHT22;41082;52.822;6.666;2023-08-07T02:50:46;14.80;99.90
55211;DHT22;41082;52.822;6.666;2023-08-07T02:53:12;14.70;99.90
55211;DHT22;41082;52.822;6.666;2023-08-07T02:55:37;14.70;99.90
55211;DHT22;41082;52.822;6.666;2023-08-07T02:58:03;14.80;99.90
55211;DHT22;41082;52.822;6.666;2023-08-07T03:00:28;14.70;99.90
55211;DHT22;41082;52.822;6.666;2023-08-07T03:02:54;14.70;99.90
55211;DHT22;41082;52.822;6.666;2023-08-07T03:05:19;14.70;99.90
55211;DHT22;41082;52.822;6.666;2023-08-07T03:07:45;14.70;99.90
55211;DHT22;41082;52.822;6.666;2023-08-07T03:10:11;14.70;99.90
55211;DHT22;41082;52.822;6.666;2023-08-07T03:12:37;14.70;99.90
55211;DHT22;41082;52.822;6.666;2023-08-07T03:15:04;14.70;99.90
55211;DHT22;41082;52.822;6.666;2023-08-07T03:17:30;14.70;99.90
55211;DHT22;41082;52.822;6.666;2023-08-07T03:19:56;14.70;99.90
55211;DHT22;41082;52.822;6.666;2023-08-07T03:22:21;14.70;99.90
55211;DHT22;41082;52.822;6.666;2023-08-07T03:24:48;14.60;99.90
55211;DHT22;41082;52.822;6.666;2023-08-07T03:27:13;14.60;99.90
55211;DHT22;41082;52.822;6.666;2023-08-07T03:29:39;14.60;99.90
55211;DHT22;41082;52.822;6.666;2023-08-07T03:32:05;14.60;99.90
55211;DHT22;41082;52.822;6.666;2023-08-07T03:34:30;14.60;99.90
55211;DHT22;41082;52.822;6.666;2023-08-07T03:36:56;14.60;99.90
55211;DHT22;41082;52.822;6.666;2023-08-07T03:39:21;14.60;99.90
55211;DHT22;41082;52.822;6.666;2023-08-07T03:41:47;14.60;99.90
55211;DHT22;41082;52.822;6.666;2023-08-07T03:44:13;14.60;99.90
55211;DHT22;41082;52.822;6.666;2023-08-07T03:46:38;14.60;99.90
55211;DHT22;41082;52.822;6.666;2023-08-07T03:49:04;14.60;99.90
55211;DHT22;41082;52.822;6.666;2023-08-07T03:51:29;14.60;99.90
55211;DHT22;41082;52.822;6.666;2023-08-07T03:53:56;14.60;99.90
55211;DHT22;41082;52.822;6.666;2023-08-07T03:56:21;14.70;99.90
55211;DHT22;41082;52.822;6.666;2023-08-07T03:58:47;14.70;99.90
55211;DHT22;41082;52.822;6.666;2023-08-07T04:01:14;14.70;99.90
55211;DHT22;41082;52.822;6.666;2023-08-07T04:03:40;14.70;99.90
55211;DHT22;41082;52.822;6.666;2023-08-07T04:06:06;14.70;99.90
55211;DHT22;41082;52.822;6.666;2023-08-07T04:08:31;14.70;99.90
55211;DHT22;41082;52.822;6.666;2023-08-07T04:11:01;14.80;99.90
55211;DHT22;41082;52.822;6.666;2023-08-07T04:13:28;14.80;99.90
55211;DHT22;41082;52.822;6.666;2023-08-07T04:15:53;14.80;99.90
55211;DHT22;41082;52.822;6.666;2023-08-07T04:18:19;14.80;99.90
55211;DHT22;41082;52.822;6.666;2023-08-07T04:20:49;14.80;99.90
55211;DHT22;41082;52.822;6.666;2023-08-07T04:23:15;14.80;99.90
55211;DHT22;41082;52.822;6.666;2023-08-07T04:25:41;14.80;99.90
55211;DHT22;41082;52.822;6.666;2023-08-07T04:28:06;14.80;99.90
55211;DHT22;41082;52.822;6.666;2023-08-07T04:30:32;14.90;99.90
55211;DHT22;41082;52.822;6.666;2023-08-07T04:32:57;14.80;99.90
55211;DHT22;41082;52.822;6.666;2023-08-07T04:35:23;14.90;99.90
55211;DHT22;41082;52.822;6.666;2023-08-07T04:37:48;14.90;99.90
55211;DHT22;41082;52.822;6.666;2023-08-07T04:40:14;14.90;99.90
55211;DHT22;41082;52.822;6.666;2023-08-07T04:42:39;14.90;99.90
55211;DHT22;41082;52.822;6.666;2023-08-07T04:45:05;14.90;99.90
55211;DHT22;41082;52.822;6.666;2023-08-07T04:47:31;14.90;99.90
55211;DHT22;41082;52.822;6.666;2023-08-07T04:49:57;15.00;99.90
55211;DHT22;41082;52.822;6.666;2023-08-07T04:52:22;14.90;99.90
55211;DHT22;41082;52.822;6.666;2023-08-07T04:54:48;15.00;99.90
55211;DHT22;41082;52.822;6.666;2023-08-07T04:57:13;15.00;99.90
55211;DHT22;41082;52.822;6.666;2023-08-07T04:59:39;15.00;99.90
55211;DHT22;41082;52.822;6.666;2023-08-07T05:02:05;15.00;99.90
55211;DHT22;41082;52.822;6.666;2023-08-07T05:04:31;15.00;99.90
55211;DHT22;41082;52.822;6.666;2023-08-07T05:06:56;15.10;99.90
55211;DHT22;41082;52.822;6.666;2023-08-07T05:09:22;15.00;99.90
55211;DHT22;41082;52.822;6.666;2023-08-07T05:11:47;15.00;99.90
55211;DHT22;41082;52.822;6.666;2023-08-07T05:14:13;15.10;99.90
55211;DHT22;41082;52.822;6.666;2023-08-07T05:16:39;15.10;99.90
55211;DHT22;41082;52.822;6.666;2023-08-07T05:19:05;15.10;99.90
55211;DHT22;41082;52.822;6.666;2023-08-07T05:21:30;15.10;99.90
55211;DHT22;41082;52.822;6.666;2023-08-07T05:23:56;15.10;99.90
55211;DHT22;41082;52.822;6.666;2023-08-07T05:26:21;15.10;99.90
55211;DHT22;41082;52.822;6.666;2023-08-07T05:28:47;15.20;99.90
55211;DHT22;41082;52.822;6.666;2023-08-07T05:31:13;15.20;99.90
55211;DHT22;41082;52.822;6.666;2023-08-07T05:33:38;15.30;99.90
55211;DHT22;41082;52.822;6.666;2023-08-07T05:36:04;15.20;99.90
55211;DHT22;41082;52.822;6.666;2023-08-07T05:38:31;15.30;99.90
55211;DHT22;41082;52.822;6.666;2023-08-07T05:40:57;15.30;99.90
55211;DHT22;41082;52.822;6.666;2023-08-07T05:43:23;15.30;99.90
55211;DHT22;41082;52.822;6.666;2023-08-07T05:45:49;15.30;99.90
55211;DHT22;41082;52.822;6.666;2023-08-07T05:48:15;15.30;99.90
55211;DHT22;41082;52.822;6.666;2023-08-07T05:50:42;15.30;99.90
55211;DHT22;41082;52.822;6.666;2023-08-07T05:53:08;15.30;99.90
55211;DHT22;41082;52.822;6.666;2023-08-07T05:55:34;15.30;99.90
55211;DHT22;41082;52.822;6.666;2023-08-07T05:57:59;15.40;99.90
55211;DHT22;41082;52.822;6.666;2023-08-07T06:00:25;15.40;99.90
55211;DHT22;41082;52.822;6.666;2023-08-07T06:02:51;15.40;99.90
55211;DHT22;41082;52.822;6.666;2023-08-07T06:05:16;15.30;99.90
55211;DHT22;41082;52.822;6.666;2023-08-07T06:07:42;15.30;99.90
55211;DHT22;41082;52.822;6.666;2023-08-07T06:10:08;15.40;99.90
55211;DHT22;41082;52.822;6.666;2023-08-07T06:12:34;15.40;99.90
55211;DHT22;41082;52.822;6.666;2023-08-07T06:14:59;15.40;99.90
55211;DHT22;41082;52.822;6.666;2023-08-07T06:17:25;15.50;99.90
55211;DHT22;41082;52.822;6.666;2023-08-07T06:19:52;15.50;99.90
55211;DHT22;41082;52.822;6.666;2023-08-07T06:22:17;15.50;99.90
55211;DHT22;41082;52.822;6.666;2023-08-07T06:24:43;15.50;99.90
55211;DHT22;41082;52.822;6.666;2023-08-07T06:27:08;15.60;99.90
55211;DHT22;41082;52.822;6.666;2023-08-07T06:29:34;15.70;99.90
55211;DHT22;41082;52.822;6.666;2023-08-07T06:32:00;15.80;99.90
55211;DHT22;41082;52.822;6.666;2023-08-07T06:34:25;15.90;99.90
55211;DHT22;41082;52.822;6.666;2023-08-07T06:36:51;16.00;99.90
55211;DHT22;41082;52.822;6.666;2023-08-07T06:39:16;16.00;99.90
55211;DHT22;41082;52.822;6.666;2023-08-07T06:41:42;16.00;99.90
55211;DHT22;41082;52.822;6.666;2023-08-07T06:44:08;16.00;99.90
55211;DHT22;41082;52.822;6.666;2023-08-07T06:46:33;16.00;99.90
55211;DHT22;41082;52.822;6.666;2023-08-07T06:48:59;16.10;99.90
55211;DHT22;41082;52.822;6.666;2023-08-07T06:51:24;16.00;99.90
55211;DHT22;41082;52.822;6.666;2023-08-07T06:53:50;16.10;99.90
55211;DHT22;41082;52.822;6.666;2023-08-07T06:56:15;16.10;99.90
55211;DHT22;41082;52.822;6.666;2023-08-07T06:58:41;16.10;99.90
55211;DHT22;41082;52.822;6.666;2023-08-07T07:01:07;16.10;99.90
55211;DHT22;41082;52.822;6.666;2023-08-07T07:03:32;16.10;99.90
55211;DHT22;41082;52.822;6.666;2023-08-07T07:05:58;16.10;99.90
55211;DHT22;41082;52.822;6.666;2023-08-07T07:08:24;16.10;99.90
55211;DHT22;41082;52.822;6.666;2023-08-07T07:10:49;16.20;99.90
55211;DHT22;41082;52.822;6.666;2023-08-07T07:13:15;16.10;99.90
55211;DHT22;41082;52.822;6.666;2023-08-07T07:15:40;16.10;99.90
55211;DHT22;41082;52.822;6.666;2023-08-07T07:18:06;16.20;99.90
55211;DHT22;41082;52.822;6.666;2023-08-07T07:20:31;16.20;99.90
55211;DHT22;41082;52.822;6.666;2023-08-07T07:22:57;16.20;99.90
55211;DHT22;41082;52.822;6.666;2023-08-07T07:25:23;16.30;99.90
55211;DHT22;41082;52.822;6.666;2023-08-07T07:27:48;16.30;99.90
55211;DHT22;41082;52.822;6.666;2023-08-07T07:30:14;16.40;99.90
55211;DHT22;41082;52.822;6.666;2023-08-07T07:32:39;16.40;99.90
55211;DHT22;41082;52.822;6.666;2023-08-07T07:35:05;16.50;99.90
55211;DHT22;41082;52.822;6.666;2023-08-07T07:37:31;16.50;99.90
55211;DHT22;41082;52.822;6.666;2023-08-07T07:39:57;16.60;99.90
55211;DHT22;41082;52.822;6.666;2023-08-07T07:42:23;16.60;99.90
55211;DHT22;41082;52.822;6.666;2023-08-07T07:44:48;16.70;99.90
55211;DHT22;41082;52.822;6.666;2023-08-07T07:47:14;16.60;99.90
55211;DHT22;41082;52.822;6.666;2023-08-07T07:49:45;16.50;99.90
55211;DHT22;41082;52.822;6.666;2023-08-07T07:52:11;16.50;99.90
55211;DHT22;41082;52.822;6.666;2023-08-07T07:54:36;16.50;99.90
55211;DHT22;41082;52.822;6.666;2023-08-07T07:57:02;16.50;99.90
55211;DHT22;41082;52.822;6.666;2023-08-07T07:59:27;16.60;99.90
55211;DHT22;41082;52.822;6.666;2023-08-07T08:01:53;16.70;99.90
55211;DHT22;41082;52.822;6.666;2023-08-07T08:04:18;16.70;99.90
55211;DHT22;41082;52.822;6.666;2023-08-07T08:06:44;16.70;99.90
55211;DHT22;41082;52.822;6.666;2023-08-07T08:09:10;16.70;99.90
55211;DHT22;41082;52.822;6.666;2023-08-07T08:11:35;16.70;99.90
55211;DHT22;41082;52.822;6.666;2023-08-07T08:14:01;16.80;99.90
55211;DHT22;41082;52.822;6.666;2023-08-07T08:16:26;16.70;99.90
55211;DHT22;41082;52.822;6.666;2023-08-07T08:18:52;16.60;99.90
55211;DHT22;41082;52.822;6.666;2023-08-07T08:21:18;16.60;99.90
55211;DHT22;41082;52.822;6.666;2023-08-07T08:23:43;16.50;99.90
55211;DHT22;41082;52.822;6.666;2023-08-07T08:26:09;16.60;99.90
55211;DHT22;41082;52.822;6.666;2023-08-07T08:28:34;16.60;99.90
55211;DHT22;41082;52.822;6.666;2023-08-07T08:31:00;16.60;99.90
55211;DHT22;41082;52.822;6.666;2023-08-07T08:33:25;16.70;99.90
55211;DHT22;41082;52.822;6.666;2023-08-07T08:35:51;16.90;99.90
55211;DHT22;41082;52.822;6.666;2023-08-07T08:38:17;17.10;99.90
55211;DHT22;41082;52.822;6.666;2023-08-07T08:40:44;17.20;99.90
55211;DHT22;41082;52.822;6.666;2023-08-07T08:43:12;17.30;99.90
55211;DHT22;41082;52.822;6.666;2023-08-07T08:45:40;17.30;99.90
55211;DHT22;41082;52.822;6.666;2023-08-07T08:48:07;17.20;99.90
55211;DHT22;41082;52.822;6.666;2023-08-07T08:50:34;17.10;99.90
55211;DHT22;41082;52.822;6.666;2023-08-07T08:53:02;17.00;99.90
55211;DHT22;41082;52.822;6.666;2023-08-07T08:55:28;16.90;99.90
55211;DHT22;41082;52.822;6.666;2023-08-07T08:57:54;16.70;99.90
55211;DHT22;41082;52.822;6.666;2023-08-07T09:00:21;16.70;99.90
55211;DHT22;41082;52.822;6.666;2023-08-07T09:02:50;16.70;99.90
55211;DHT22;41082;52.822;6.666;2023-08-07T09:05:17;16.70;99.90
55211;DHT22;41082;52.822;6.666;2023-08-07T09:07:44;16.80;99.90
55211;DHT22;41082;52.822;6.666;2023-08-07T09:10:12;17.00;99.90
55211;DHT22;41082;52.822;6.666;2023-08-07T09:12:45;17.10;99.90
55211;DHT22;41082;52.822;6.666;2023-08-07T09:15:14;17.30;99.90
55211;DHT22;41082;52.822;6.666;2023-08-07T09:17:42;17.40;99.90
55211;DHT22;41082;52.822;6.666;2023-08-07T09:20:09;17.50;99.90
55211;DHT22;41082;52.822;6.666;2023-08-07T09:22:38;17.60;99.90
55211;DHT22;41082;52.822;6.666;2023-08-07T09:25:04;17.70;99.90
55211;DHT22;41082;52.822;6.666;2023-08-07T09:27:30;17.80;99.90
55211;DHT22;41082;52.822;6.666;2023-08-07T09:29:56;17.90;99.90
55211;DHT22;41082;52.822;6.666;2023-08-07T09:32:23;18.00;99.90
55211;DHT22;41082;52.822;6.666;2023-08-07T09:34:50;18.10;99.90
55211;DHT22;41082;52.822;6.666;2023-08-07T09:37:17;18.20;99.90
55211;DHT22;41082;52.822;6.666;2023-08-07T09:39:42;18.20;99.90
55211;DHT22;41082;52.822;6.666;2023-08-07T09:42:15;18.20;99.90
55211;DHT22;41082;52.822;6.666;2023-08-07T09:44:42;18.20;99.90
55211;DHT22;41082;52.822;6.666;2023-08-07T09:47:18;18.10;99.90
55211;DHT22;41082;52.822;6.666;2023-08-07T09:49:44;18.10;99.90
55211;DHT22;41082;52.822;6.666;2023-08-07T09:52:14;18.20;99.90
55211;DHT22;41082;52.822;6.666;2023-08-07T09:54:40;18.40;99.90
55211;DHT22;41082;52.822;6.666;2023-08-07T09:57:06;18.40;99.90
55211;DHT22;41082;52.822;6.666;2023-08-07T09:59:35;18.50;99.90
55211;DHT22;41082;52.822;6.666;2023-08-07T10:02:02;18.50;99.90
55211;DHT22;41082;52.822;6.666;2023-08-07T10:04:28;18.60;99.90
55211;DHT22;41082;52.822;6.666;2023-08-07T10:06:54;18.70;99.90
55211;DHT22;41082;52.822;6.666;2023-08-07T10:09:21;18.90;99.90
55211;DHT22;41082;52.822;6.666;2023-08-07T10:11:46;19.00;99.90
55211;DHT22;41082;52.822;6.666;2023-08-07T10:14:14;19.00;99.40
55211;DHT22;41082;52.822;6.666;2023-08-07T10:16:40;18.90;98.50
55211;DHT22;41082;52.822;6.666;2023-08-07T10:19:07;18.60;99.90
55211;DHT22;41082;52.822;6.666;2023-08-07T10:21:35;18.40;99.90
55211;DHT22;41082;52.822;6.666;2023-08-07T10:24:04;18.30;99.90
55211;DHT22;41082;52.822;6.666;2023-08-07T10:26:35;18.30;99.90
55211;DHT22;41082;52.822;6.666;2023-08-07T10:29:03;18.40;99.90
55211;DHT22;41082;52.822;6.666;2023-08-07T10:31:31;18.50;99.90
55211;DHT22;41082;52.822;6.666;2023-08-07T10:33:58;18.70;99.90
55211;DHT22;41082;52.822;6.666;2023-08-07T10:36:32;18.90;99.90
55211;DHT22;41082;52.822;6.666;2023-08-07T10:39:09;19.00;99.70
55211;DHT22;41082;52.822;6.666;2023-08-07T10:41:48;19.00;99.50
55211;DHT22;41082;52.822;6.666;2023-08-07T10:44:47;18.90;99.90
55211;DHT22;41082;52.822;6.666;2023-08-07T10:47:13;18.80;99.70
55211;DHT22;41082;52.822;6.666;2023-08-07T10:49:40;18.70;99.90
55211;DHT22;41082;52.822;6.666;2023-08-07T10:52:14;18.70;99.90
55211;DHT22;41082;52.822;6.666;2023-08-07T10:54:49;18.60;99.60
55211;DHT22;41082;52.822;6.666;2023-08-07T10:57:17;18.60;99.80
55211;DHT22;41082;52.822;6.666;2023-08-07T11:00:02;18.70;99.10
55211;DHT22;41082;52.822;6.666;2023-08-07T11:02:31;18.70;99.90
55211;DHT22;41082;52.822;6.666;2023-08-07T11:04:58;18.80;99.90
55211;DHT22;41082;52.822;6.666;2023-08-07T11:07:29;18.80;99.90
55211;DHT22;41082;52.822;6.666;2023-08-07T11:09:56;18.70;99.20
55211;DHT22;41082;52.822;6.666;2023-08-07T11:12:26;18.60;98.90
55211;DHT22;41082;52.822;6.666;2023-08-07T11:14:52;18.50;98.50
55211;DHT22;41082;52.822;6.666;2023-08-07T11:17:18;18.30;99.10
55211;DHT22;41082;52.822;6.666;2023-08-07T11:19:47;18.10;99.90
55211;DHT22;41082;52.822;6.666;2023-08-07T11:22:15;18.10;99.90
55211;DHT22;41082;52.822;6.666;2023-08-07T11:24:41;18.10;99.90
55211;DHT22;41082;52.822;6.666;2023-08-07T11:27:07;18.20;99.90
55211;DHT22;41082;52.822;6.666;2023-08-07T11:29:33;18.20;99.90
55211;DHT22;41082;52.822;6.666;2023-08-07T11:31:59;18.40;99.90
55211;DHT22;41082;52.822;6.666;2023-08-07T11:34:25;18.40;99.90
55211;DHT22;41082;52.822;6.666;2023-08-07T11:36:51;18.40;98.80
55211;DHT22;41082;52.822;6.666;2023-08-07T11:39:16;18.40;98.80
55211;DHT22;41082;52.822;6.666;2023-08-07T11:41:43;18.30;98.50
55211;DHT22;41082;52.822;6.666;2023-08-07T11:44:09;18.30;98.70
55211;DHT22;41082;52.822;6.666;2023-08-07T11:46:35;18.20;99.20
55211;DHT22;41082;52.822;6.666;2023-08-07T11:49:01;18.30;99.10
55211;DHT22;41082;52.822;6.666;2023-08-07T11:51:29;18.40;99.20
55211;DHT22;41082;52.822;6.666;2023-08-07T11:53:55;18.40;99.10
55211;DHT22;41082;52.822;6.666;2023-08-07T11:56:24;18.40;99.00
55211;DHT22;41082;52.822;6.666;2023-08-07T11:58:51;18.50;99.20
55211;DHT22;41082;52.822;6.666;2023-08-07T12:01:18;18.50;99.80
55211;DHT22;41082;52.822;6.666;2023-08-07T12:03:58;18.60;99.70
55211;DHT22;41082;52.822;6.666;2023-08-07T12:06:34;18.70;99.30
55211;DHT22;41082;52.822;6.666;2023-08-07T12:09:01;18.80;98.40
55211;DHT22;41082;52.822;6.666;2023-08-07T12:11:29;18.90;98.00
55211;DHT22;41082;52.822;6.666;2023-08-07T12:13:55;18.90;97.40
55211;DHT22;41082;52.822;6.666;2023-08-07T12:16:21;18.90;97.60
55211;DHT22;41082;52.822;6.666;2023-08-07T12:18:51;18.90;98.70
55211;DHT22;41082;52.822;6.666;2023-08-07T12:21:22;18.90;98.30
55211;DHT22;41082;52.822;6.666;2023-08-07T12:23:51;19.00;98.90
55211;DHT22;41082;52.822;6.666;2023-08-07T12:26:17;19.00;98.70
55211;DHT22;41082;52.822;6.666;2023-08-07T12:28:43;19.10;99.60
55211;DHT22;41082;52.822;6.666;2023-08-07T12:31:09;19.20;97.70
55211;DHT22;41082;52.822;6.666;2023-08-07T12:33:34;19.10;97.50
55211;DHT22;41082;52.822;6.666;2023-08-07T12:36:01;18.90;98.10
55211;DHT22;41082;52.822;6.666;2023-08-07T12:38:27;18.80;98.00
55211;DHT22;41082;52.822;6.666;2023-08-07T12:40:53;18.50;98.90
55211;DHT22;41082;52.822;6.666;2023-08-07T12:43:19;18.40;99.20
55211;DHT22;41082;52.822;6.666;2023-08-07T12:45:45;18.40;99.40
55211;DHT22;41082;52.822;6.666;2023-08-07T12:48:11;18.30;99.90
55211;DHT22;41082;52.822;6.666;2023-08-07T12:50:37;18.30;99.90
55211;DHT22;41082;52.822;6.666;2023-08-07T12:53:03;18.20;99.90
55211;DHT22;41082;52.822;6.666;2023-08-07T12:55:29;18.20;99.90
55211;DHT22;41082;52.822;6.666;2023-08-07T12:57:55;18.30;99.90
55211;DHT22;41082;52.822;6.666;2023-08-07T13:00:22;18.30;99.90
55211;DHT22;41082;52.822;6.666;2023-08-07T13:02:49;18.30;99.90
55211;DHT22;41082;52.822;6.666;2023-08-07T13:05:15;18.20;99.90
55211;DHT22;41082;52.822;6.666;2023-08-07T13:07:42;18.20;99.90
55211;DHT22;41082;52.822;6.666;2023-08-07T13:10:09;18.20;99.90
55211;DHT22;41082;52.822;6.666;2023-08-07T13:12:36;18.20;99.90
55211;DHT22;41082;52.822;6.666;2023-08-07T13:15:03;18.20;99.90
55211;DHT22;41082;52.822;6.666;2023-08-07T13:17:29;18.20;99.90
55211;DHT22;41082;52.822;6.666;2023-08-07T13:19:55;18.20;99.90
55211;DHT22;41082;52.822;6.666;2023-08-07T13:22:21;18.10;99.90
55211;DHT22;41082;52.822;6.666;2023-08-07T13:24:47;18.00;99.90
55211;DHT22;41082;52.822;6.666;2023-08-07T13:27:13;18.10;99.90
55211;DHT22;41082;52.822;6.666;2023-08-07T13:29:38;18.30;99.90
55211;DHT22;41082;52.822;6.666;2023-08-07T13:32:04;18.40;99.90
55211;DHT22;41082;52.822;6.666;2023-08-07T13:34:35;18.40;99.90
55211;DHT22;41082;52.822;6.666;2023-08-07T13:37:01;18.40;99.90
55211;DHT22;41082;52.822;6.666;2023-08-07T13:39:26;18.30;99.90
55211;DHT22;41082;52.822;6.666;2023-08-07T13:41:53;18.20;99.90
55211;DHT22;41082;52.822;6.666;2023-08-07T13:44:19;18.20;99.90
55211;DHT22;41082;52.822;6.666;2023-08-07T13:46:44;18.20;99.90
55211;DHT22;41082;52.822;6.666;2023-08-07T13:49:10;18.20;99.90
55211;DHT22;41082;52.822;6.666;2023-08-07T13:51:36;18.30;99.90
55211;DHT22;41082;52.822;6.666;2023-08-07T13:54:02;18.30;99.90
55211;DHT22;41082;52.822;6.666;2023-08-07T13:56:27;18.30;99.90
55211;DHT22;41082;52.822;6.666;2023-08-07T13:58:53;18.30;99.90
55211;DHT22;41082;52.822;6.666;2023-08-07T14:01:20;18.40;99.90
55211;DHT22;41082;52.822;6.666;2023-08-07T14:03:46;18.60;99.90
55211;DHT22;41082;52.822;6.666;2023-08-07T14:06:11;18.70;99.90
55211;DHT22;41082;52.822;6.666;2023-08-07T14:08:37;18.80;99.90
55211;DHT22;41082;52.822;6.666;2023-08-07T14:11:03;19.00;99.90
55211;DHT22;41082;52.822;6.666;2023-08-07T14:13:30;19.00;99.90
55211;DHT22;41082;52.822;6.666;2023-08-07T14:15:55;18.90;99.90
55211;DHT22;41082;52.822;6.666;2023-08-07T14:18:21;18.80;99.90
55211;DHT22;41082;52.822;6.666;2023-08-07T14:20:46;18.70;99.90
55211;DHT22;41082;52.822;6.666;2023-08-07T14:23:12;18.60;99.90
55211;DHT22;41082;52.822;6.666;2023-08-07T14:25:38;18.50;99.90
55211;DHT22;41082;52.822;6.666;2023-08-07T14:28:04;18.30;99.90
55211;DHT22;41082;52.822;6.666;2023-08-07T14:30:29;18.20;99.90
55211;DHT22;41082;52.822;6.666;2023-08-07T14:32:55;18.00;99.90
55211;DHT22;41082;52.822;6.666;2023-08-07T14:35:21;17.90;99.90
55211;DHT22;41082;52.822;6.666;2023-08-07T14:37:46;17.80;99.90
55211;DHT22;41082;52.822;6.666;2023-08-07T14:40:13;17.70;99.90
55211;DHT22;41082;52.822;6.666;2023-08-07T14:42:39;17.60;99.90
55211;DHT22;41082;52.822;6.666;2023-08-07T14:45:05;17.40;99.90
55211;DHT22;41082;52.822;6.666;2023-08-07T14:47:31;17.30;99.90
55211;DHT22;41082;52.822;6.666;2023-08-07T14:49:57;17.10;99.90
55211;DHT22;41082;52.822;6.666;2023-08-07T14:52:22;17.10;99.90
55211;DHT22;41082;52.822;6.666;2023-08-07T14:54:48;17.00;99.90
55211;DHT22;41082;52.822;6.666;2023-08-07T14:57:14;16.90;99.90
55211;DHT22;41082;52.822;6.666;2023-08-07T14:59:39;16.90;99.90
55211;DHT22;41082;52.822;6.666;2023-08-07T15:02:05;16.90;99.90
55211;DHT22;41082;52.822;6.666;2023-08-07T15:04:31;16.90;99.90
55211;DHT22;41082;52.822;6.666;2023-08-07T15:06:57;16.90;99.90
55211;DHT22;41082;52.822;6.666;2023-08-07T15:09:23;16.90;99.90
55211;DHT22;41082;52.822;6.666;2023-08-07T15:11:49;16.80;99.90
55211;DHT22;41082;52.822;6.666;2023-08-07T15:14:15;16.80;99.90
55211;DHT22;41082;52.822;6.666;2023-08-07T15:16:41;16.80;99.90
55211;DHT22;41082;52.822;6.666;2023-08-07T15:19:07;16.80;99.90
55211;DHT22;41082;52.822;6.666;2023-08-07T15:21:33;16.90;99.90
55211;DHT22;41082;52.822;6.666;2023-08-07T15:23:59;17.00;99.90
55211;DHT22;41082;52.822;6.666;2023-08-07T15:26:24;17.10;99.90
55211;DHT22;41082;52.822;6.666;2023-08-07T15:28:50;17.20;99.90
55211;DHT22;41082;52.822;6.666;2023-08-07T15:31:16;17.20;99.90
55211;DHT22;41082;52.822;6.666;2023-08-07T15:33:42;17.20;99.90